createdAt,value
2023-02-06T00:00:15.447Z,17.60
2023-02-06T00:02:45.838Z,21.80
2023-02-06T00:05:16.291Z,18.97
2023-02-06T00:07:46.684Z,22.02
2023-02-06T00:10:17.218Z,24.13
2023-02-06T00:12:47.637Z,19.97
2023-02-06T00:15:20.730Z,24.57
2023-02-06T00:17:54.052Z,23.70
2023-02-06T00:20:24.711Z,19.70
2023-02-06T00:22:55.114Z,16.08
2023-02-06T00:25:25.466Z,21.27
2023-02-06T00:27:55.860Z,23.20
2023-02-06T00:30:30.269Z,23.33
2023-02-06T00:33:00.556Z,18.57
2023-02-06T00:35:31.460Z,21.73
2023-02-06T00:38:02.603Z,18.47
2023-02-06T00:40:32.982Z,20.23
2023-02-06T00:43:03.316Z,19.43
2023-02-06T00:45:36.713Z,21.30
2023-02-06T00:48:09.250Z,17.50
2023-02-06T00:50:40.579Z,20.77
2023-02-06T00:53:11.429Z,19.70
2023-02-06T00:55:41.879Z,19.77
2023-02-06T00:58:12.329Z,18.67
2023-02-06T01:00:48.130Z,19.23
2023-02-06T01:03:18.502Z,19.57
2023-02-06T01:05:49.079Z,19.07
2023-02-06T01:08:19.636Z,19.10
2023-02-06T01:10:50.066Z,20.50
2023-02-06T01:13:20.392Z,18.55
2023-02-06T01:15:54.154Z,18.15
2023-02-06T01:18:24.555Z,21.33
2023-02-06T01:20:54.931Z,17.10
2023-02-06T01:23:26.162Z,19.63
2023-02-06T01:28:27.288Z,19.33
2023-02-06T01:31:00.433Z,18.30
2023-02-06T01:33:30.809Z,19.67
2023-02-06T01:36:01.200Z,18.67
2023-02-06T01:38:33.292Z,19.77
2023-02-06T01:41:05.299Z,18.63
2023-02-06T01:43:39.747Z,19.13
2023-02-06T01:46:13.310Z,19.03
2023-02-06T01:48:47.727Z,18.83
2023-02-06T01:51:22.255Z,19.20
2023-02-06T01:53:57.510Z,17.50
2023-02-06T01:56:30.306Z,15.97
2023-02-06T01:59:05.456Z,18.00
2023-02-06T02:01:39.050Z,16.10
2023-02-06T02:04:12.083Z,17.73
2023-02-06T02:06:43.963Z,19.50
2023-02-06T02:09:14.467Z,18.20
2023-02-06T02:11:44.955Z,18.48
2023-02-06T02:14:18.844Z,16.60
2023-02-06T02:17:08.791Z,17.50
2023-02-06T02:20:37.967Z,18.90
2023-02-06T02:23:31.441Z,18.50
2023-02-06T02:27:00.958Z,18.67
2023-02-06T02:29:57.297Z,17.10
2023-02-06T02:33:18.510Z,19.77
2023-02-06T02:35:57.398Z,18.08
2023-02-06T02:38:46.965Z,17.00
2023-02-06T02:41:22.689Z,15.77
2023-02-06T02:44:01.423Z,16.63
2023-02-06T02:46:37.908Z,17.47
2023-02-06T02:49:15.005Z,18.50
2023-02-06T02:51:50.494Z,17.03
2023-02-06T02:54:21.939Z,18.07
2023-02-06T02:56:52.444Z,16.45
2023-02-06T02:59:28.904Z,19.08
2023-02-06T03:02:05.451Z,16.33
2023-02-06T03:04:43.997Z,19.10
2023-02-06T03:07:29.920Z,18.33
2023-02-06T03:10:09.573Z,18.57
2023-02-06T03:12:48.059Z,17.20
2023-02-06T03:15:27.621Z,17.00
2023-02-06T03:18:04.458Z,15.63
2023-02-06T03:20:36.463Z,17.70
2023-02-06T03:23:11.525Z,19.43
2023-02-06T03:25:45.984Z,19.97
2023-02-06T03:28:23.713Z,18.30
2023-02-06T03:30:57.355Z,19.60
2023-02-06T03:33:33.945Z,16.57
2023-02-06T03:36:05.320Z,16.70
2023-02-06T03:38:38.360Z,16.73
2023-02-06T03:41:09.580Z,15.33
2023-02-06T03:43:40.253Z,17.55
2023-02-06T03:46:13.227Z,21.45
2023-02-06T03:48:48.673Z,17.53
2023-02-06T03:51:22.936Z,17.93
2023-02-06T03:53:59.277Z,19.17
2023-02-06T03:56:37.139Z,16.27
2023-02-06T03:59:07.507Z,16.80
2023-02-06T04:01:38.582Z,24.50
2023-02-06T04:04:09.831Z,18.88
2023-02-06T04:09:12.961Z,16.60
2023-02-06T04:11:43.304Z,17.60
2023-02-06T04:14:13.572Z,18.50
2023-02-06T04:16:43.964Z,15.50
2023-02-06T04:19:14.303Z,16.90
2023-02-06T04:21:44.614Z,18.57
2023-02-06T04:24:17.573Z,15.70
2023-02-06T04:26:47.889Z,16.70
2023-02-06T04:29:18.245Z,18.43
2023-02-06T04:31:48.699Z,17.77
2023-02-06T04:34:18.941Z,20.07
2023-02-06T04:36:49.256Z,16.77
2023-02-06T04:39:22.126Z,17.10
2023-02-06T04:41:52.491Z,20.67
2023-02-06T04:44:22.942Z,20.97
2023-02-06T04:46:53.311Z,21.50
2023-02-06T04:49:23.887Z,16.93
2023-02-06T04:51:54.395Z,18.77
2023-02-06T04:54:27.433Z,15.67
2023-02-06T04:56:57.836Z,19.53
2023-02-06T04:59:28.235Z,17.87
2023-02-06T05:01:58.620Z,18.87
2023-02-06T05:04:29.202Z,18.10
2023-02-06T05:06:59.602Z,20.08
2023-02-06T05:09:32.823Z,24.73
2023-02-06T05:12:03.224Z,19.23
2023-02-06T05:14:33.659Z,16.73
2023-02-06T05:17:03.971Z,15.83
2023-02-06T05:19:34.563Z,19.57
2023-02-06T05:22:04.972Z,18.13
2023-02-06T05:24:37.972Z,17.23
2023-02-06T05:27:08.277Z,17.30
2023-02-06T05:29:38.586Z,18.80
2023-02-06T05:32:09.028Z,21.43
2023-02-06T05:34:39.464Z,19.23
2023-02-06T05:37:09.914Z,20.55
2023-02-06T05:39:42.901Z,17.23
2023-02-06T05:42:13.192Z,22.27
2023-02-06T05:44:43.522Z,23.07
2023-02-06T05:47:13.956Z,21.70
2023-02-06T05:49:44.683Z,18.80
2023-02-06T05:52:15.115Z,22.48
2023-02-06T05:54:48.154Z,23.03
2023-02-06T05:57:18.542Z,19.67
2023-02-06T05:59:48.906Z,22.20
2023-02-06T06:02:19.250Z,19.43
2023-02-06T06:04:49.650Z,25.43
2023-02-06T06:07:22.923Z,21.83
2023-02-06T06:09:55.865Z,21.47
2023-02-06T06:12:26.202Z,26.20
2023-02-06T06:14:56.777Z,22.42
2023-02-06T06:17:27.033Z,23.17
2023-02-06T06:19:57.397Z,30.97
2023-02-06T06:22:27.769Z,25.23
2023-02-06T06:25:00.713Z,24.57
2023-02-06T06:27:30.986Z,27.03
2023-02-06T06:30:01.359Z,23.27
2023-02-06T06:32:31.650Z,26.27
2023-02-06T06:35:02.036Z,24.67
2023-02-06T06:37:32.505Z,30.80
2023-02-06T06:40:05.428Z,28.83
2023-02-06T06:42:35.792Z,21.47
2023-02-06T06:45:06.410Z,26.53
2023-02-06T06:47:36.905Z,55.35
2023-02-06T06:50:08.775Z,32.42
2023-02-06T06:52:39.613Z,32.40
2023-02-06T06:55:12.967Z,23.95
2023-02-06T06:57:43.291Z,28.90
2023-02-06T07:00:16.292Z,29.60
2023-02-06T07:02:47.272Z,28.07
2023-02-06T07:05:17.748Z,28.38
2023-02-06T07:07:48.164Z,24.30
2023-02-06T07:10:21.363Z,26.40
2023-02-06T07:12:53.651Z,45.67
2023-02-06T07:15:24.194Z,31.33
2023-02-06T07:17:54.824Z,32.10
2023-02-06T07:20:25.438Z,35.22
2023-02-06T07:22:55.882Z,26.90
2023-02-06T07:25:28.819Z,22.90
2023-02-06T07:27:59.239Z,31.73
2023-02-06T07:30:29.607Z,23.70
2023-02-06T07:32:59.963Z,24.50
2023-02-06T07:35:30.465Z,26.07
2023-02-06T07:38:00.903Z,26.63
2023-02-06T07:40:44.726Z,24.67
2023-02-06T07:43:15.757Z,23.60
2023-02-06T07:45:46.697Z,29.08
2023-02-06T07:48:17.353Z,28.85
2023-02-06T07:50:47.722Z,26.00
2023-02-06T07:53:18.142Z,99.17
2023-02-06T07:55:51.392Z,41.50
2023-02-06T07:58:21.796Z,28.67
2023-02-06T08:00:52.187Z,27.43
2023-02-06T08:03:22.502Z,27.33
2023-02-06T08:05:52.791Z,28.73
2023-02-06T08:08:23.104Z,29.67
2023-02-06T08:10:55.985Z,25.13
2023-02-06T08:13:26.352Z,27.47
2023-02-06T08:15:56.658Z,29.97
2023-02-06T08:18:27.084Z,23.30
2023-02-06T08:20:57.352Z,30.60
2023-02-06T08:23:28.051Z,24.87
2023-02-06T08:26:09.359Z,19.83
2023-02-06T08:28:42.392Z,26.80
2023-02-06T08:31:14.367Z,28.23
2023-02-06T08:33:45.300Z,26.53
2023-02-06T08:36:17.644Z,33.10
2023-02-06T08:38:48.628Z,28.90
2023-02-06T08:41:24.774Z,27.35
2023-02-06T08:43:58.828Z,31.60
2023-02-06T08:46:32.584Z,34.37
2023-02-06T08:49:05.554Z,29.10
2023-02-06T08:51:37.038Z,31.13
2023-02-06T08:54:11.339Z,33.00
2023-02-06T08:56:44.479Z,32.17
2023-02-06T08:59:17.149Z,44.57
2023-02-06T09:01:49.483Z,33.80
2023-02-06T09:04:20.433Z,35.83
2023-02-06T09:06:52.313Z,32.90
2023-02-06T09:09:23.106Z,37.70
2023-02-06T09:11:59.091Z,29.73
2023-02-06T09:14:29.526Z,28.10
2023-02-06T09:17:00.016Z,34.33
2023-02-06T09:19:30.472Z,31.92
2023-02-06T09:22:01.032Z,29.15
2023-02-06T09:24:32.388Z,30.43
2023-02-06T09:27:05.632Z,29.83
2023-02-06T09:29:36.349Z,29.87
2023-02-06T09:34:38.235Z,37.40
2023-02-06T09:37:09.487Z,35.25
2023-02-06T09:42:19.926Z,33.90
2023-02-06T09:44:54.309Z,32.67
2023-02-06T09:47:30.474Z,36.47
2023-02-06T09:50:07.526Z,40.27
2023-02-06T09:52:55.666Z,38.60
2023-02-06T09:55:35.380Z,36.60
2023-02-06T09:58:25.012Z,39.70
2023-02-06T10:01:02.884Z,38.80
2023-02-06T10:03:53.753Z,42.00
2023-02-06T10:06:27.875Z,40.53
2023-02-06T10:09:05.958Z,39.60
2023-02-06T10:11:46.142Z,40.87
2023-02-06T10:14:25.122Z,40.97
2023-02-06T10:17:01.706Z,42.20
2023-02-06T10:19:44.177Z,36.67
2023-02-06T10:22:21.194Z,41.33
2023-02-06T10:24:59.366Z,38.63
2023-02-06T10:27:29.902Z,42.40
2023-02-06T10:30:04.264Z,42.15
2023-02-06T10:32:48.261Z,42.30
2023-02-06T10:35:37.173Z,42.53
2023-02-06T10:38:40.881Z,39.63
2023-02-06T10:41:24.430Z,41.50
2023-02-06T10:44:00.204Z,42.17
2023-02-06T10:46:44.524Z,49.53
2023-02-06T10:49:25.892Z,46.97
2023-02-06T10:52:00.450Z,43.33
2023-02-06T10:54:38.454Z,42.43
2023-02-06T10:57:19.145Z,41.87
2023-02-06T10:59:54.030Z,42.80
2023-02-06T11:02:30.634Z,43.07
2023-02-06T11:05:07.713Z,42.40
2023-02-06T11:07:44.024Z,46.97
2023-02-06T11:10:20.049Z,43.33
2023-02-06T11:12:55.148Z,46.10
2023-02-06T11:15:32.977Z,44.43
2023-02-06T11:18:10.665Z,43.63
2023-02-06T11:20:45.141Z,43.90
2023-02-06T11:23:21.983Z,36.37
2023-02-06T11:26:09.047Z,38.40
2023-02-06T11:28:43.902Z,40.97
2023-02-06T11:31:14.539Z,41.47
2023-02-06T11:33:52.920Z,40.60
2023-02-06T11:36:31.505Z,36.17
2023-02-06T11:39:04.672Z,36.70
2023-02-06T11:41:36.040Z,34.43
2023-02-06T11:44:07.696Z,36.20
2023-02-06T11:46:39.598Z,34.33
2023-02-06T11:49:29.524Z,31.70
2023-02-06T11:52:04.081Z,34.77
2023-02-06T11:54:37.160Z,33.50
2023-02-06T11:57:13.063Z,34.47
2023-02-06T11:59:56.735Z,31.73
2023-02-06T12:02:32.568Z,33.57
2023-02-06T12:05:15.097Z,32.97
2023-02-06T12:07:50.673Z,27.93
2023-02-06T12:10:24.064Z,31.67
2023-02-06T12:12:59.474Z,29.50
2023-02-06T12:15:46.927Z,28.70
2023-02-06T12:18:22.082Z,27.17
2023-02-06T12:21:00.187Z,28.73
2023-02-06T12:23:39.645Z,24.57
2023-02-06T12:26:15.878Z,22.43
2023-02-06T12:28:57.735Z,25.90
2023-02-06T12:31:37.984Z,24.73
2023-02-06T12:34:18.538Z,24.13
2023-02-06T12:37:00.552Z,21.87
2023-02-06T12:39:35.691Z,22.13
2023-02-06T12:42:29.183Z,21.93
2023-02-06T12:45:04.607Z,22.50
2023-02-06T12:47:43.686Z,22.27
2023-02-06T12:50:26.954Z,23.47
2023-02-06T12:53:05.473Z,21.03
2023-02-06T12:55:40.192Z,23.20
2023-02-06T12:58:28.297Z,21.87
2023-02-06T13:01:31.033Z,22.83
2023-02-06T13:04:06.232Z,20.47
2023-02-06T13:06:47.547Z,19.30
2023-02-06T13:09:28.112Z,19.83
2023-02-06T13:12:11.405Z,20.47
2023-02-06T13:14:49.983Z,21.57
2023-02-06T13:17:23.592Z,20.77
2023-02-06T13:20:04.063Z,19.43
2023-02-06T13:22:49.407Z,22.27
2023-02-06T13:25:52.371Z,22.77
2023-02-06T13:29:02.990Z,21.90
2023-02-06T13:31:36.673Z,20.20
2023-02-06T13:34:17.487Z,24.47
2023-02-06T13:36:59.880Z,39.58
2023-02-06T13:39:36.676Z,25.70
2023-02-06T13:42:42.011Z,24.20
2023-02-06T13:45:23.308Z,23.23
2023-02-06T13:48:35.065Z,23.63
2023-02-06T13:54:54.047Z,22.93
2023-02-06T13:57:39.123Z,26.40
2023-02-06T14:00:18.235Z,24.43
2023-02-06T14:02:52.656Z,25.23
2023-02-06T14:05:29.555Z,28.67
2023-02-06T14:08:14.106Z,25.00
2023-02-06T14:11:30.135Z,24.43
2023-02-06T14:14:37.362Z,25.13
2023-02-06T14:17:22.211Z,27.43
2023-02-06T14:20:02.136Z,26.20
2023-02-06T14:22:53.893Z,24.87
2023-02-06T14:25:47.582Z,26.47
2023-02-06T14:28:28.754Z,27.30
2023-02-06T14:31:15.308Z,27.90
2023-02-06T14:34:11.440Z,26.60
2023-02-06T14:37:06.823Z,24.87
2023-02-06T14:39:44.440Z,25.33
2023-02-06T14:42:23.795Z,27.20
2023-02-06T14:45:04.174Z,28.03
2023-02-06T14:47:42.453Z,33.80
2023-02-06T14:50:23.466Z,29.87
2023-02-06T14:52:57.153Z,29.75
2023-02-06T14:55:38.322Z,29.97
2023-02-06T14:58:21.247Z,30.27
2023-02-06T15:00:51.721Z,28.80
2023-02-06T15:03:27.362Z,28.83
2023-02-06T15:06:06.787Z,30.10
2023-02-06T15:08:38.019Z,32.03
2023-02-06T15:13:40.688Z,32.10
2023-02-06T15:16:12.846Z,33.00
2023-02-06T15:18:45.859Z,32.37
2023-02-06T15:21:19.804Z,33.03
2023-02-06T15:24:07.485Z,32.07
2023-02-06T15:26:46.124Z,31.87
2023-02-06T15:29:23.201Z,33.80
2023-02-06T15:31:58.294Z,33.53
2023-02-06T15:34:32.806Z,32.00
2023-02-06T15:37:03.255Z,37.80
2023-02-06T15:39:34.176Z,40.83
2023-02-06T15:42:04.654Z,37.15
2023-02-06T15:44:39.545Z,39.33
2023-02-06T15:47:17.066Z,39.30
2023-02-06T15:49:54.351Z,37.50
2023-02-06T15:52:43.011Z,39.90
2023-02-06T15:55:30.355Z,39.97
2023-02-06T15:58:04.280Z,39.87
2023-02-06T16:00:38.429Z,40.83
2023-02-06T16:03:20.547Z,37.73
2023-02-06T16:05:54.046Z,38.53
2023-02-06T16:08:28.832Z,38.40
2023-02-06T16:11:04.052Z,40.17
2023-02-06T16:13:35.961Z,35.10
2023-02-06T16:16:25.107Z,37.50
2023-02-06T16:18:58.673Z,37.60
2023-02-06T16:21:35.617Z,40.10
2023-02-06T16:24:19.255Z,35.70
2023-02-06T16:26:52.648Z,36.77
2023-02-06T16:29:30.950Z,34.43
2023-02-06T16:32:04.466Z,32.03
2023-02-06T16:34:41.161Z,34.37
2023-02-06T16:37:18.698Z,32.70
2023-02-06T16:39:49.887Z,29.57
2023-02-06T16:45:01.261Z,76.97
2023-02-06T16:47:31.863Z,28.53
2023-02-06T16:50:02.376Z,27.38
2023-02-06T16:52:37.328Z,23.65
2023-02-06T16:55:08.368Z,29.73
2023-02-06T16:57:45.043Z,30.25
2023-02-06T17:00:22.230Z,27.47
2023-02-06T17:02:54.842Z,26.70
2023-02-06T17:05:28.477Z,24.53
2023-02-06T17:08:01.742Z,26.00
2023-02-06T17:10:32.169Z,23.97
2023-02-06T17:13:02.577Z,22.97
2023-02-06T17:15:32.968Z,26.43
2023-02-06T17:18:03.277Z,21.77
2023-02-06T17:20:37.961Z,21.90
2023-02-06T17:23:12.802Z,25.90
2023-02-06T17:25:45.600Z,27.83
2023-02-06T17:28:18.901Z,22.87
2023-02-06T17:30:51.052Z,23.70
2023-02-06T17:33:21.676Z,23.13
2023-02-06T17:35:52.349Z,22.25
2023-02-06T17:38:25.452Z,23.33
2023-02-06T17:40:57.226Z,20.40
2023-02-06T17:43:28.183Z,26.30
2023-02-06T17:45:58.617Z,23.73
2023-02-06T17:48:29.048Z,24.67
2023-02-06T17:50:59.496Z,23.50
2023-02-06T17:53:32.509Z,25.47
2023-02-06T17:56:08.536Z,26.27
2023-02-06T17:58:38.961Z,27.03
2023-02-06T18:01:14.579Z,30.70
2023-02-06T18:03:47.872Z,28.50
2023-02-06T18:06:18.479Z,31.60
2023-02-06T18:08:52.039Z,37.13
2023-02-06T18:11:25.039Z,37.13
2023-02-06T18:13:55.993Z,34.87
2023-02-06T18:16:28.755Z,33.00
2023-02-06T18:18:59.494Z,32.60
2023-02-06T18:21:31.084Z,33.50
2023-02-06T18:24:04.980Z,34.17
2023-02-06T18:26:35.644Z,32.67
2023-02-06T18:29:08.068Z,40.17
2023-02-06T18:31:39.741Z,38.37
2023-02-06T18:34:11.718Z,36.03
2023-02-06T18:36:45.283Z,47.73
2023-02-06T18:39:18.586Z,34.97
2023-02-06T18:42:01.498Z,34.40
2023-02-06T18:44:35.036Z,44.77
2023-02-06T18:47:05.765Z,40.07
2023-02-06T18:49:37.423Z,37.30
2023-02-06T18:52:09.385Z,38.80
2023-02-06T18:54:42.645Z,40.63
2023-02-06T18:57:13.310Z,39.40
2023-02-06T18:59:44.168Z,41.47
2023-02-06T19:02:14.999Z,43.20
2023-02-06T19:04:45.563Z,39.97
2023-02-06T19:07:16.733Z,40.78
2023-02-06T19:12:20.221Z,42.00
2023-02-06T19:14:50.851Z,39.77
2023-02-06T19:17:21.296Z,39.88
2023-02-06T19:19:51.959Z,40.60
2023-02-06T19:22:22.575Z,37.90
2023-02-06T19:24:57.151Z,46.30
2023-02-06T19:27:28.486Z,40.90
2023-02-06T19:32:29.647Z,39.00
2023-02-06T19:35:00.250Z,40.20
2023-02-06T19:37:30.803Z,41.65
2023-02-06T19:40:04.039Z,43.72
2023-02-06T19:42:34.592Z,41.43
2023-02-06T19:45:06.452Z,39.67
2023-02-06T19:47:37.914Z,42.13
2023-02-06T19:50:09.599Z,49.90
2023-02-06T19:52:39.971Z,45.07
2023-02-06T19:55:13.676Z,40.00
2023-02-06T19:57:43.989Z,54.83
2023-02-06T20:00:16.275Z,51.03
2023-02-06T20:02:46.604Z,44.57
2023-02-06T20:05:18.973Z,39.77
2023-02-06T20:07:49.616Z,40.10
2023-02-06T20:10:23.036Z,47.88
2023-02-06T20:12:53.527Z,44.27
2023-02-06T20:15:24.026Z,41.40
2023-02-06T20:17:54.592Z,38.90
2023-02-06T20:20:25.055Z,44.10
2023-02-06T20:22:55.391Z,41.80
2023-02-06T20:25:28.864Z,41.73
2023-02-06T20:27:59.520Z,40.20
2023-02-06T20:30:30.007Z,40.60
2023-02-06T20:33:00.693Z,38.95
2023-02-06T20:35:31.346Z,40.10
2023-02-06T20:38:02.208Z,41.58
2023-02-06T20:40:35.547Z,40.88
2023-02-06T20:43:06.137Z,44.20
2023-02-06T20:45:37.432Z,44.50
2023-02-06T20:50:38.743Z,41.90
2023-02-06T20:53:09.329Z,46.05
2023-02-06T20:55:47.379Z,46.97
2023-02-06T20:58:17.755Z,44.50
2023-02-06T21:00:49.856Z,43.03
2023-02-06T21:03:20.279Z,42.57
2023-02-06T21:05:59.511Z,54.60
2023-02-06T21:08:30.398Z,55.30
2023-02-06T21:11:03.650Z,49.13
2023-02-06T21:13:34.218Z,50.40
2023-02-06T21:16:04.822Z,51.85
2023-02-06T21:18:36.025Z,50.85
2023-02-06T21:21:11.185Z,46.38
2023-02-06T21:23:43.166Z,48.97
2023-02-06T21:26:17.952Z,50.20
2023-02-06T21:28:49.130Z,49.27
2023-02-06T21:31:23.158Z,44.83
2023-02-06T21:33:55.220Z,44.07
2023-02-06T21:36:25.590Z,44.93
2023-02-06T21:38:55.889Z,48.13
2023-02-06T21:41:29.332Z,42.03
2023-02-06T21:43:59.772Z,49.90
2023-02-06T21:46:31.095Z,48.10
2023-02-06T21:49:01.490Z,45.83
2023-02-06T21:51:31.816Z,46.67
2023-02-06T21:54:02.150Z,42.00
2023-02-06T21:56:36.520Z,41.23
2023-02-06T21:59:07.510Z,45.43
2023-02-06T22:01:40.626Z,42.45
2023-02-06T22:04:12.406Z,43.40
2023-02-06T22:06:43.738Z,37.47
2023-02-06T22:09:20.807Z,40.80
2023-02-06T22:11:54.137Z,37.13
2023-02-06T22:14:24.533Z,42.83
2023-02-06T22:16:54.870Z,36.63
2023-02-06T22:19:25.228Z,38.30
2023-02-06T22:21:55.656Z,34.63
2023-02-06T22:24:26.051Z,38.90
2023-02-06T22:26:59.044Z,38.43
2023-02-06T22:29:30.177Z,34.03
2023-02-06T22:32:04.460Z,41.17
2023-02-06T22:34:35.292Z,39.03
2023-02-06T22:37:05.757Z,39.83
2023-02-06T22:39:36.175Z,37.47
2023-02-06T22:42:09.327Z,37.95
2023-02-06T22:44:39.880Z,34.80
2023-02-06T22:47:10.339Z,37.38
2023-02-06T22:49:40.908Z,41.63
2023-02-06T22:52:31.386Z,38.60
2023-02-06T22:55:03.503Z,51.27
2023-02-06T22:57:37.356Z,48.80
2023-02-06T23:00:12.300Z,51.90
2023-02-06T23:02:42.947Z,49.23
2023-02-06T23:05:13.458Z,49.03
2023-02-06T23:07:43.908Z,35.72
2023-02-06T23:10:14.278Z,47.10
2023-02-06T23:12:47.186Z,37.67
2023-02-06T23:15:17.793Z,38.07
2023-02-06T23:17:49.689Z,29.52
2023-02-06T23:20:20.638Z,28.13
2023-02-06T23:22:51.059Z,25.33
2023-02-06T23:25:21.514Z,33.43
2023-02-06T23:27:54.769Z,28.13
2023-02-06T23:30:25.270Z,27.53
2023-02-06T23:32:55.706Z,26.30
2023-02-06T23:35:26.103Z,26.67
2023-02-06T23:37:56.427Z,32.20
2023-02-06T23:40:26.747Z,29.77
2023-02-06T23:42:59.655Z,26.87
2023-02-06T23:45:30.727Z,25.07
2023-02-06T23:48:01.186Z,25.08
2023-02-06T23:50:31.971Z,27.37
2023-02-06T23:53:02.362Z,29.35
2023-02-06T23:55:33.024Z,26.30
2023-02-06T23:58:06.033Z,26.70
